KMGY/MGY METAR and TAF weather

Enter ICAO airport designator
Station Type Date Time Source
KMGY METAR 2021/09/27 07:53 UTC NOAA

KMGY 270753Z AUTO 19007KT 10SM CLR 13/09 A3002 RMK AO2 SLP161 T01280094


Station Type Date Time Source
KMGY Decoded METAR 2021/09/27 07:53 UTC NOAA

DAYTON WRIGHT BROTHERS AIRPORT , OH, United States (KMGY) 39-36N 84-14W 289M
Sep 27, 2021 - 03:53 AM EDT / 2021.09.27 0753 UTC
Wind: from the S (190 degrees) at 8 MPH (7 KT):0
Visibility: 10 mile(s):0
Sky conditions: clear
Temperature: 55.0 F (12.8 C)
Dew Point: 48.9 F (9.4 C)
Relative Humidity: 79%
Pressure (altimeter): 30.02 in. Hg (1016 hPa)
ob: KMGY 270753Z AUTO 19007KT 10SM CLR 13/09 A3002 RMK AO2 SLP161 T01280094
cycle: 8

Station Type Date Time Source
KMGY TAF UTC NOAA

Error!

Example: see airport list